H203 — WDJ4962 — position and weather

sailwx.info

Track history (hours):
 
Tides and Currents Weather Stations Pressure Air Temp Water Temp Dewpoint Dewpoint Depression Visibility Wind Speed Wind Dir Waves Ship Positions

H203

Owner: HNY Ferry Fleet LLC, New York, NY. More information available from US FCC via Universal Licensing System and Coast Guard Vessel Documentation Center.

Last reported at 2017-Dec-17 21:30 UTC. Time now 2017-Dec-17 21:44 UTC.
Position N 40°35' W 073°50'.

Length 26 m; draft 2 m.

Type: Passenger vessel. MMSI: 367782880.

Date/timePositionNaut miles runAvg speedWind from/ knotsBaromVisibWave heightAir tempDewpointWater temp
2017-Dec-17 21:30N 40°35' W 073°50'816.2
2017-Dec-17 21:00N 40°34' W 074°01'816.3
2017-Dec-17 20:30N 40°42' W 074°00'510.2
2017-Dec-17 20:00N 40°37' W 074°03'1019.1
2017-Dec-17 19:29N 40°35' W 073°50'816.2
2017-Dec-17 19:00N 40°34' W 074°00'816.4
2017-Dec-17 18:30N 40°42' W 074°00'612.2
2017-Dec-17 18:01N 40°36' W 074°02'918.5
2017-Dec-17 17:30N 40°35' W 073°50'817.3
2017-Dec-17 17:00N 40°34' W 074°01'815.9
2017-Dec-17 16:31N 40°42' W 074°00'713.6
2017-Dec-17 16:00N 40°35' W 074°02'917.6
2017-Dec-17 15:30N 40°35' W 073°50'917.5
2017-Dec-17 15:00N 40°35' W 074°01'815.4
2017-Dec-17 14:31N 40°42' W 074°00'612.8
2017-Dec-17 14:00N 40°36' W 074°02'918.1
2017-Dec-17 13:30N 40°35' W 073°50'918.0
2017-Dec-17 13:01N 40°35' W 074°01'815.0
2017-Dec-17 12:31N 40°42' W 074°00'713.8
2017-Dec-17 12:00N 40°35' W 074°02'917.9
2017-Dec-17 11:30N 40°35' W 073°50'714.7
2017-Dec-17 11:00N 40°34' W 073°59'816.1
2017-Dec-17 10:31N 40°42' W 074°00'2 3.2
2017-Dec-17 10:00N 40°42' W 073°58'0 0.0
2017-Dec-17 03:35N 40°42' W 073°58'0 0.1
2017-Dec-17 03:31N 40°42' W 073°58'612.8
2017-Dec-17 03:00N 40°37' W 074°02'1019.2
2017-Dec-17 02:30N 40°35' W 073°50'816.3
2017-Dec-17 02:00N 40°34' W 074°01'816.2
2017-Dec-17 01:31N 40°42' W 074°00'612.2
2017-Dec-17 01:00N 40°36' W 074°02'918.7
2017-Dec-17 00:30N 40°35' W 073°50'816.9
2017-Dec-17 00:00N 40°34' W 074°01'815.8
2017-Dec-16 23:30N 40°42' W 074°00'510.7
2017-Dec-16 23:00N 40°37' W 074°03'1019.3
2017-Dec-16 22:30N 40°35' W 073°50'817.2
2017-Dec-16 22:00N 40°35' W 074°01'815.5
2017-Dec-16 21:31N 40°42' W 074°00'510.5
2017-Dec-16 21:00N 40°37' W 074°03'1019.6
2017-Dec-16 20:30N 40°35' W 073°50'816.3
2017-Dec-16 20:00N 40°34' W 074°00'816.2
2017-Dec-16 19:30N 40°42' W 074°00'510.8
2017-Dec-16 19:01N 40°37' W 074°03'1019.5
2017-Dec-16 18:30N 40°35' W 073°50'816.8
2017-Dec-16 18:00N 40°34' W 074°01'815.7
2017-Dec-16 17:30N 40°42' W 074°00'611.4
2017-Dec-16 17:00N 40°37' W 074°02'1018.7
2017-Dec-16 16:29N 40°35' W 073°50'816.1
2017-Dec-16 16:00N 40°34' W 074°00'816.3
2017-Dec-16 15:30N 40°42' W 074°00'611.5
2017-Dec-16 15:00N 40°37' W 074°02'1019.2
2017-Dec-16 14:30N 40°35' W 073°50'816.9
2017-Dec-16 14:00N 40°34' W 074°01'815.9
2017-Dec-16 13:31N 40°42' W 074°00'612.4
2017-Dec-16 13:00N 40°36' W 074°02'918.8
2017-Dec-16 12:30N 40°35' W 073°50'1019.6
2017-Dec-16 12:00N 40°37' W 074°03'612.5
2017-Dec-16 11:30N 40°42' W 073°58'0 0.0
2017-Dec-16 11:00N 40°42' W 073°58'0 0.0
2017-Dec-16 03:48N 40°42' W 073°58'4 8.1
2017-Dec-16 03:21N 40°46' W 073°57'1 4.1
2017-Dec-16 03:00N 40°45' W 073°58'0 0.4
2017-Dec-16 02:30N 40°44' W 073°58'1 1.6
2017-Dec-16 01:40N 40°45' W 073°57'1 4.3
2017-Dec-16 01:30N 40°45' W 073°57'3 6.8
2017-Dec-16 01:01N 40°42' W 074°00'4 8.6
2017-Dec-16 00:30N 40°46' W 073°57'0 0.3
2017-Dec-15 23:35N 40°45' W 073°57'0 1.5
2017-Dec-15 23:30N 40°45' W 073°57'4 7.8
2017-Dec-15 22:59N 40°42' W 074°00'4 4.0
2017-Dec-15 21:54N 40°46' W 073°57'3 6.8
2017-Dec-15 21:31N 40°43' W 073°58'3 5.0
2017-Dec-15 21:00N 40°41' W 074°01'0 0.0
2017-Dec-15 20:30N 40°41' W 074°01'1 1.7
2017-Dec-15 20:01N 40°42' W 074°00'4 8.2
2017-Dec-15 19:29N 40°46' W 073°57'0 0.5
2017-Dec-15 19:00N 40°45' W 073°57'4 8.3
2017-Dec-15 18:30N 40°42' W 074°00'3 6.8
2017-Dec-15 18:00N 40°45' W 073°57'2 3.4
2017-Dec-15 17:31N 40°46' W 073°56'2 4.4
2017-Dec-15 17:00N 40°45' W 073°58'0 0.0
2017-Dec-15 16:30N 40°45' W 073°58'2 4.5
2017-Dec-15 16:00N 40°46' W 073°56'2 3.3
2017-Dec-15 15:30N 40°45' W 073°57'4 7.1
2017-Dec-15 15:00N 40°42' W 074°00'4 8.5
2017-Dec-15 14:30N 40°46' W 073°57'0 0.1
2017-Dec-15 14:00N 40°46' W 073°57'4 7.7
2017-Dec-15 13:31N 40°42' W 073°59'3 5.9
2017-Dec-15 13:00N 40°45' W 073°57'1 1.9
2017-Dec-15 12:30N 40°46' W 073°57'4 7.6
2017-Dec-15 12:00N 40°42' W 073°58'0 0.0
2017-Dec-15 00:06N 40°42' W 073°58'1 0.1
2017-Dec-14 18:31N 40°42' W 073°59'3 5.7
2017-Dec-14 18:01N 40°45' W 073°57'2 3.2
2017-Dec-14 17:29N 40°46' W 073°56'2 4.7
2017-Dec-14 17:01N 40°45' W 073°58'0 0.1
2017-Dec-14 16:31N 40°45' W 073°58'2 4.4
2017-Dec-14 16:00N 40°46' W 073°56'5 5.3
2017-Dec-14 15:01N 40°42' W 074°00'4 8.6
2017-Dec-14 14:30N 40°46' W 073°57'0 0.9
2017-Dec-14 14:00N 40°46' W 073°57'4 8.6
2017-Dec-14 13:30N 40°42' W 073°58'0 0.0
2017-Dec-14 13:00N 40°42' W 073°58'0 0.0
2017-Dec-14 12:30N 40°42' W 073°58'0 0.0
2017-Dec-14 12:00N 40°42' W 073°58'0 0.0
2017-Dec-14 02:29N 40°42' W 073°58'4 8.6
2017-Dec-14 02:01N 40°39' W 074°02'713.8
2017-Dec-14 01:30N 40°34' W 073°55'2 4.9
2017-Dec-14 01:00N 40°34' W 073°58'611.8
2017-Dec-14 00:30N 40°39' W 074°02'0 0.6
2017-Dec-14 00:00N 40°39' W 074°02'713.9
2017-Dec-13 23:30N 40°34' W 073°55'2 4.5
2017-Dec-13 23:00N 40°34' W 073°58'612.0
2017-Dec-13 22:30N 40°39' W 074°02'1 2.7
2017-Dec-13 22:01N 40°40' W 074°01'714.0
2017-Dec-13 21:30N 40°34' W 073°57'2 5.0
2017-Dec-13 21:00N 40°34' W 073°54'715.2
2017-Dec-13 20:30N 40°39' W 074°02'0 0.1
2017-Dec-13 20:01N 40°39' W 074°02'713.2
2017-Dec-13 19:30N 40°34' W 073°56'0 0.6
2017-Dec-13 19:00N 40°34' W 073°56'713.8
2017-Dec-13 18:31N 40°39' W 074°02'0 0.3
2017-Dec-13 18:01N 40°39' W 074°02'713.2
2017-Dec-13 17:30N 40°34' W 073°56'0 0.4
2017-Dec-13 17:00N 40°34' W 073°56'713.8
2017-Dec-13 16:31N 40°39' W 074°02'0 0.8
2017-Dec-13 16:01N 40°39' W 074°02'714.6
2017-Dec-13 15:30N 40°34' W 073°54'0 0.6
2017-Dec-13 15:01N 40°34' W 073°54'715.0
2017-Dec-13 14:31N 40°39' W 074°02'0 0.4
2017-Dec-13 14:01N 40°39' W 074°02'612.4
2017-Dec-13 13:30N 40°34' W 073°57'2 3.4
2017-Dec-13 13:00N 40°34' W 073°54'715.0
2017-Dec-13 12:30N 40°39' W 074°02'0 0.9
2017-Dec-13 12:01N 40°39' W 074°02'713.1
2017-Dec-13 11:30N 40°34' W 073°57'5 9.4
2017-Dec-13 11:00N 40°35' W 073°51'917.6
2017-Dec-13 10:30N 40°36' W 074°02'713.2
2017-Dec-13 10:00N 40°42' W 073°58'0 0.0
2017-Dec-13 03:47N 40°42' W 073°58'415.9
2017-Dec-13 03:30N 40°46' W 073°56'2 4.7
2017-Dec-13 03:00N 40°45' W 073°58'0 0.7
2017-Dec-13 02:31N 40°44' W 073°58'3 5.1
2017-Dec-13 02:00N 40°46' W 073°56'2 3.4
2017-Dec-13 01:30N 40°45' W 073°57'3 6.7
2017-Dec-13 01:01N 40°42' W 074°00'4 7.7
2017-Dec-13 00:31N 40°45' W 073°57'0 0.2
2017-Dec-13 00:00N 40°45' W 073°57'4 7.2
2017-Dec-12 23:30N 40°42' W 073°60'3 5.7
2017-Dec-12 23:00N 40°45' W 073°57'2 3.5
2017-Dec-12 22:30N 40°46' W 073°56'2 4.5
2017-Dec-12 22:00N 40°45' W 073°58'0 0.1
2017-Dec-12 21:30N 40°45' W 073°58'2 4.6
2017-Dec-12 21:00N 40°46' W 073°56'2 3.4
2017-Dec-12 20:30N 40°45' W 073°57'3 6.4
2017-Dec-12 20:00N 40°42' W 073°60'1 2.4
2017-Dec-12 19:30N 40°42' W 073°58'1 1.7
2017-Dec-12 19:01N 40°42' W 073°59'1 1.7
2017-Dec-12 18:30N 40°42' W 073°58'1 2.5
2017-Dec-12 18:00N 40°43' W 073°58'2 3.5
2017-Dec-12 17:30N 40°42' W 073°60'1 1.5
2017-Dec-12 17:00N 40°42' W 074°00'0 0.6
2017-Dec-12 16:31N 40°41' W 074°00'2 3.6
2017-Dec-12 16:01N 40°42' W 073°58'0 0.0
2017-Dec-12 15:30N 40°42' W 073°58'5 9.1
2017-Dec-12 15:00N 40°46' W 073°57'2 4.6
2017-Dec-12 14:30N 40°44' W 073°58'0 0.4
2017-Dec-12 14:00N 40°45' W 073°58'2 4.5
2017-Dec-12 13:30N 40°46' W 073°56'2 3.6
2017-Dec-12 13:00N 40°45' W 073°57'3 6.0
2017-Dec-12 12:30N 40°42' W 073°60'4 7.5
2017-Dec-12 12:00N 40°46' W 073°57'4 7.2
2017-Dec-12 11:30N 40°42' W 073°58'0 0.0
2017-Dec-12 02:32N 40°42' W 073°58'0 0.2
2017-Dec-12 02:30N 40°42' W 073°58'3 6.1
2017-Dec-12 02:01N 40°40' W 074°01'713.4
2017-Dec-12 01:30N 40°34' W 073°58'4 7.7
2017-Dec-12 01:00N 40°35' W 073°53'816.2
2017-Dec-12 00:30N 40°39' W 074°02'1 2.7
2017-Dec-12 00:00N 40°40' W 074°01'713.6
2017-Dec-11 23:30N 40°34' W 073°57'3 5.5
2017-Dec-11 22:58N 40°34' W 073°54'816.2
2017-Dec-11 22:30N 40°39' W 074°02'1 1.9
2017-Dec-11 22:01N 40°40' W 074°01'712.8
2017-Dec-11 21:30N 40°34' W 073°58'4 7.3
2017-Dec-11 21:00N 40°34' W 073°53'816.2
2017-Dec-11 20:31N 40°39' W 074°02'2 3.0
2017-Dec-11 20:01N 40°40' W 074°01'714.0
2017-Dec-11 19:30N 40°34' W 073°57'3 6.5
2017-Dec-11 19:00N 40°34' W 073°53'816.1
2017-Dec-11 18:30N 40°39' W 074°02'2 3.3
2017-Dec-11 18:01N 40°40' W 074°01'814.5
2017-Dec-11 17:29N 40°34' W 073°56'2 4.9
2017-Dec-11 17:00N 40°34' W 073°53'815.8
2017-Dec-11 16:30N 40°39' W 074°02'1 2.6
2017-Dec-11 16:01N 40°40' W 074°01'713.8
2017-Dec-11 15:30N 40°34' W 073°57'4 7.5
2017-Dec-11 15:00N 40°35' W 073°52'816.6
2017-Dec-11 14:30N 40°39' W 074°02'1 2.4
2017-Dec-11 14:01N 40°40' W 074°01'713.6
2017-Dec-11 13:31N 40°34' W 073°57'4 7.4
2017-Dec-11 13:00N 40°35' W 073°53'815.9
2017-Dec-11 12:30N 40°39' W 074°02'1 2.5
2017-Dec-11 12:01N 40°40' W 074°01'713.8
2017-Dec-11 11:30N 40°34' W 073°57'510.5
2017-Dec-11 10:59N 40°35' W 073°50'918.0
2017-Dec-11 10:30N 40°35' W 074°01'714.7
2017-Dec-11 10:01N 40°42' W 073°58'0 0.0
2017-Dec-11 03:41N 40°42' W 073°58'1 8.2
2017-Dec-11 03:31N 40°42' W 074°00'713.3
2017-Dec-11 03:01N 40°36' W 074°02'917.5
2017-Dec-11 02:30N 40°35' W 073°50'918.5
2017-Dec-11 02:00N 40°35' W 074°02'714.4
2017-Dec-11 01:30N 40°42' W 074°00'612.3
2017-Dec-11 01:00N 40°36' W 074°02'916.6
2017-Dec-11 00:26N 40°35' W 073°50'920.7
2017-Dec-11 00:00N 40°35' W 074°02'714.4
2017-Dec-10 23:31N 40°42' W 074°00'712.7
2017-Dec-10 23:00N 40°36' W 074°02'918.2
2017-Dec-10 22:30N 40°35' W 073°50'817.0
2017-Dec-10 22:00N 40°34' W 074°01'815.8
2017-Dec-10 21:30N 40°42' W 074°00'612.2
2017-Dec-10 21:00N 40°36' W 074°02'917.5
2017-Dec-10 20:28N 40°35' W 073°50'918.8
2017-Dec-10 20:00N 40°35' W 074°01'714.7
2017-Dec-10 19:30N 40°42' W 074°00'611.3
2017-Dec-10 19:01N 40°37' W 074°03'1019.4
2017-Dec-10 18:30N 40°35' W 073°50'917.2
2017-Dec-10 18:00N 40°35' W 074°01'714.4
2017-Dec-10 17:30N 40°42' W 074°00'611.7
2017-Dec-10 17:00N 40°37' W 074°02'1019.1
2017-Dec-10 16:30N 40°35' W 073°50'817.0
2017-Dec-10 16:00N 40°34' W 074°01'815.6
2017-Dec-10 15:30N 40°42' W 074°00'611.8
2017-Dec-10 15:01N 40°37' W 074°02'1018.8
2017-Dec-10 14:30N 40°35' W 073°50'816.8
2017-Dec-10 14:00N 40°34' W 074°01'816.1
2017-Dec-10 13:31N 40°42' W 074°00'612.0
2017-Dec-10 13:00N 40°36' W 074°02'1019.0
2017-Dec-10 12:30N 40°35' W 073°50'714.1
2017-Dec-10 12:00N 40°34' W 073°59'816.9
2017-Dec-10 11:31N 40°42' W 073°59'0 0.6
2017-Dec-10 11:01N 40°42' W 073°58'0 0.0
2017-Dec-10 03:49N 40°42' W 073°58'0 0.2
2017-Dec-10 03:31N 40°42' W 073°58'611.3
2017-Dec-10 03:00N 40°37' W 074°03'1019.4
2017-Dec-10 02:30N 40°35' W 073°50'816.3
2017-Dec-10 02:00N 40°34' W 074°00'816.2
2017-Dec-10 01:30N 40°42' W 074°00'510.2
2017-Dec-10 01:00N 40°37' W 074°03'1019.8
2017-Dec-10 00:30N 40°35' W 073°50'815.8
2017-Dec-10 00:01N 40°34' W 074°00'816.3
2017-Dec-09 23:31N 40°42' W 074°00'611.1
2017-Dec-09 23:01N 40°37' W 074°03'1019.3
2017-Dec-09 22:30N 40°35' W 073°50'817.0
2017-Dec-09 22:00N 40°34' W 074°01'816.1
2017-Dec-09 21:30N 40°42' W 074°00'510.1
2017-Dec-09 21:00N 40°37' W 074°03'1019.0
2017-Dec-09 20:29N 40°35' W 073°50'817.3
2017-Dec-09 20:00N 40°34' W 074°01'816.0
2017-Dec-09 19:30N 40°42' W 074°00'611.2
2017-Dec-09 19:00N 40°37' W 074°03'1018.3
2017-Dec-09 18:28N 40°35' W 073°50'917.8
2017-Dec-09 17:59N 40°35' W 074°01'715.5
2017-Dec-09 17:30N 40°42' W 074°00'611.4
2017-Dec-09 17:00N 40°37' W 074°03'1019.4
2017-Dec-09 16:30N 40°35' W 073°50'816.7
2017-Dec-09 16:00N 40°34' W 074°01'816.0
2017-Dec-09 15:30N 40°42' W 074°00'611.0
2017-Dec-09 15:00N 40°37' W 074°03'1019.1
2017-Dec-09 14:30N 40°35' W 073°50'817.1
2017-Dec-09 14:00N 40°34' W 074°01'815.9
2017-Dec-09 13:31N 40°42' W 074°00'611.8
2017-Dec-09 13:00N 40°37' W 074°02'1018.8
2017-Dec-09 12:30N 40°35' W 073°50'1020.1
2017-Dec-09 12:00N 40°37' W 074°03'612.3
2017-Dec-09 11:30N 40°42' W 073°58'0 0.0
2017-Dec-09 03:23N 40°42' W 073°58'1 2.8
2017-Dec-09 03:01N 40°42' W 073°60'816.8
2017-Dec-09 02:30N 40°34' W 073°58'3 6.8
2017-Dec-09 01:59N 40°34' W 073°54'715.4
2017-Dec-09 01:31N 40°39' W 074°02'2 3.3
2017-Dec-09 01:01N 40°40' W 074°01'814.5
2017-Dec-09 00:29N 40°34' W 073°57'2 4.7
2017-Dec-09 00:00N 40°34' W 073°54'815.2
2017-Dec-08 23:31N 40°39' W 074°02'2 3.1
2017-Dec-08 23:01N 40°40' W 074°01'714.4
2017-Dec-08 22:30N 40°34' W 073°57'4 7.0
2017-Dec-08 21:59N 40°35' W 073°52'817.0
2017-Dec-08 21:31N 40°39' W 074°02'1 2.9
2017-Dec-08 21:01N 40°40' W 074°01'714.0
2017-Dec-08 20:30N 40°34' W 073°57'3 6.1
2017-Dec-08 20:00N 40°34' W 073°53'815.8
2017-Dec-08 19:30N 40°39' W 074°02'1 2.6
2017-Dec-08 19:01N 40°40' W 074°01'713.7
2017-Dec-08 18:30N 40°34' W 073°57'3 5.8
2017-Dec-08 18:00N 40°34' W 073°54'815.6
2017-Dec-08 17:30N 40°39' W 074°02'1 2.8
2017-Dec-08 17:01N 40°40' W 074°01'714.2
2017-Dec-08 16:29N 40°34' W 073°56'3 5.4
2017-Dec-08 16:00N 40°34' W 073°53'816.0
2017-Dec-08 15:31N 40°39' W 074°02'0 0.1
2017-Dec-08 15:01N 40°39' W 074°02'612.8
2017-Dec-08 14:30N 40°34' W 073°56'2 4.0
2017-Dec-08 14:00N 40°34' W 073°54'815.5
2017-Dec-08 13:31N 40°39' W 074°02'0 0.0
2017-Dec-08 13:00N 40°39' W 074°02'712.9
2017-Dec-08 12:29N 40°34' W 073°56'2 5.0
2017-Dec-08 12:00N 40°35' W 073°53'816.5
2017-Dec-08 11:31N 40°39' W 074°02'1 2.3
2017-Dec-08 11:01N 40°40' W 074°01'714.0
2017-Dec-08 10:30N 40°34' W 073°56'2 3.5
2017-Dec-08 10:00N 40°34' W 073°54'816.4
2017-Dec-08 09:31N 40°40' W 074°01'3 6.1
2017-Dec-08 09:00N 40°42' W 073°58'0 0.0
2017-Dec-08 03:53N 40°42' W 073°58'410.0
2017-Dec-08 03:30N 40°46' W 073°57'1 2.8
2017-Dec-08 03:00N 40°45' W 073°58'0 0.2
2017-Dec-08 02:30N 40°45' W 073°58'2 4.4
2017-Dec-08 01:58N 40°46' W 073°56'2 3.8
2017-Dec-08 01:31N 40°45' W 073°57'3 6.6
2017-Dec-08 01:00N 40°42' W 074°00'4 7.9
2017-Dec-08 00:30N 40°46' W 073°57'0 0.0
2017-Dec-08 00:00N 40°46' W 073°57'4 7.2
2017-Dec-07 23:31N 40°42' W 073°59'3 5.6
2017-Dec-07 23:00N 40°45' W 073°57'2 3.4
2017-Dec-07 22:30N 40°46' W 073°56'2 4.7
2017-Dec-07 22:00N 40°45' W 073°58'3 5.1
2017-Dec-07 21:30N 40°42' W 073°58'  
Track history (hours):
 
Tides and Currents Weather Stations Pressure Air Temp Water Temp Dewpoint Dewpoint Depression Visibility Wind Speed Wind Dir Waves Ship Positions

H203

Owner: HNY Ferry Fleet LLC, New York, NY. More information available from US FCC via Universal Licensing System and Coast Guard Vessel Documentation Center.

Last reported at 2017-Dec-17 21:30 UTC. Time now 2017-Dec-17 21:44 UTC.
Position N 40°35' W 073°50'.

Length 26 m; draft 2 m.

Type: Passenger vessel. MMSI: 367782880.

Date/timePositionNaut miles runAvg speedWind from/ knotsBaromVisibWave heightAir tempDewpointWater temp
2017-Dec-17 21:30N 40°35' W 073°50'816.2
2017-Dec-17 21:00N 40°34' W 074°01'816.3
2017-Dec-17 20:30N 40°42' W 074°00'510.2
2017-Dec-17 20:00N 40°37' W 074°03'1019.1
2017-Dec-17 19:29N 40°35' W 073°50'816.2
2017-Dec-17 19:00N 40°34' W 074°00'816.4
2017-Dec-17 18:30N 40°42' W 074°00'612.2
2017-Dec-17 18:01N 40°36' W 074°02'918.5
2017-Dec-17 17:30N 40°35' W 073°50'817.3
2017-Dec-17 17:00N 40°34' W 074°01'815.9
2017-Dec-17 16:31N 40°42' W 074°00'713.6
2017-Dec-17 16:00N 40°35' W 074°02'917.6
2017-Dec-17 15:30N 40°35' W 073°50'917.5
2017-Dec-17 15:00N 40°35' W 074°01'815.4
2017-Dec-17 14:31N 40°42' W 074°00'612.8
2017-Dec-17 14:00N 40°36' W 074°02'918.1
2017-Dec-17 13:30N 40°35' W 073°50'918.0
2017-Dec-17 13:01N 40°35' W 074°01'815.0
2017-Dec-17 12:31N 40°42' W 074°00'713.8
2017-Dec-17 12:00N 40°35' W 074°02'917.9
2017-Dec-17 11:30N 40°35' W 073°50'714.7
2017-Dec-17 11:00N 40°34' W 073°59'816.1
2017-Dec-17 10:31N 40°42' W 074°00'2 3.2
2017-Dec-17 10:00N 40°42' W 073°58'0 0.0
2017-Dec-17 03:35N 40°42' W 073°58'0 0.1
2017-Dec-17 03:31N 40°42' W 073°58'612.8
2017-Dec-17 03:00N 40°37' W 074°02'1019.2
2017-Dec-17 02:30N 40°35' W 073°50'816.3
2017-Dec-17 02:00N 40°34' W 074°01'816.2
2017-Dec-17 01:31N 40°42' W 074°00'612.2
2017-Dec-17 01:00N 40°36' W 074°02'918.7
2017-Dec-17 00:30N 40°35' W 073°50'816.9
2017-Dec-17 00:00N 40°34' W 074°01'815.8
2017-Dec-16 23:30N 40°42' W 074°00'510.7
2017-Dec-16 23:00N 40°37' W 074°03'1019.3
2017-Dec-16 22:30N 40°35' W 073°50'817.2
2017-Dec-16 22:00N 40°35' W 074°01'815.5
2017-Dec-16 21:31N 40°42' W 074°00'510.5
2017-Dec-16 21:00N 40°37' W 074°03'1019.6
2017-Dec-16 20:30N 40°35' W 073°50'816.3
2017-Dec-16 20:00N 40°34' W 074°00'816.2
2017-Dec-16 19:30N 40°42' W 074°00'510.8
2017-Dec-16 19:01N 40°37' W 074°03'1019.5
2017-Dec-16 18:30N 40°35' W 073°50'816.8
2017-Dec-16 18:00N 40°34' W 074°01'815.7
2017-Dec-16 17:30N 40°42' W 074°00'611.4
2017-Dec-16 17:00N 40°37' W 074°02'1018.7
2017-Dec-16 16:29N 40°35' W 073°50'816.1
2017-Dec-16 16:00N 40°34' W 074°00'816.3
2017-Dec-16 15:30N 40°42' W 074°00'611.5
2017-Dec-16 15:00N 40°37' W 074°02'1019.2
2017-Dec-16 14:30N 40°35' W 073°50'816.9
2017-Dec-16 14:00N 40°34' W 074°01'815.9
2017-Dec-16 13:31N 40°42' W 074°00'612.4
2017-Dec-16 13:00N 40°36' W 074°02'918.8
2017-Dec-16 12:30N 40°35' W 073°50'1019.6
2017-Dec-16 12:00N 40°37' W 074°03'612.5
2017-Dec-16 11:30N 40°42' W 073°58'0 0.0
2017-Dec-16 11:00N 40°42' W 073°58'0 0.0
2017-Dec-16 03:48N 40°42' W 073°58'4 8.1
2017-Dec-16 03:21N 40°46' W 073°57'1 4.1
2017-Dec-16 03:00N 40°45' W 073°58'0 0.4
2017-Dec-16 02:30N 40°44' W 073°58'1 1.6
2017-Dec-16 01:40N 40°45' W 073°57'1 4.3
2017-Dec-16 01:30N 40°45' W 073°57'3 6.8
2017-Dec-16 01:01N 40°42' W 074°00'4 8.6
2017-Dec-16 00:30N 40°46' W 073°57'0 0.3
2017-Dec-15 23:35N 40°45' W 073°57'0 1.5
2017-Dec-15 23:30N 40°45' W 073°57'4 7.8
2017-Dec-15 22:59N 40°42' W 074°00'4 4.0
2017-Dec-15 21:54N 40°46' W 073°57'3 6.8
2017-Dec-15 21:31N 40°43' W 073°58'3 5.0
2017-Dec-15 21:00N 40°41' W 074°01'0 0.0
2017-Dec-15 20:30N 40°41' W 074°01'1 1.7
2017-Dec-15 20:01N 40°42' W 074°00'4 8.2
2017-Dec-15 19:29N 40°46' W 073°57'0 0.5
2017-Dec-15 19:00N 40°45' W 073°57'4 8.3
2017-Dec-15 18:30N 40°42' W 074°00'3 6.8
2017-Dec-15 18:00N 40°45' W 073°57'2 3.4
2017-Dec-15 17:31N 40°46' W 073°56'2 4.4
2017-Dec-15 17:00N 40°45' W 073°58'0 0.0
2017-Dec-15 16:30N 40°45' W 073°58'2 4.5
2017-Dec-15 16:00N 40°46' W 073°56'2 3.3
2017-Dec-15 15:30N 40°45' W 073°57'4 7.1
2017-Dec-15 15:00N 40°42' W 074°00'4 8.5
2017-Dec-15 14:30N 40°46' W 073°57'0 0.1
2017-Dec-15 14:00N 40°46' W 073°57'4 7.7
2017-Dec-15 13:31N 40°42' W 073°59'3 5.9
2017-Dec-15 13:00N 40°45' W 073°57'1 1.9
2017-Dec-15 12:30N 40°46' W 073°57'4 7.6
2017-Dec-15 12:00N 40°42' W 073°58'0 0.0
2017-Dec-15 00:06N 40°42' W 073°58'1 0.1
2017-Dec-14 18:31N 40°42' W 073°59'3 5.7
2017-Dec-14 18:01N 40°45' W 073°57'2 3.2
2017-Dec-14 17:29N 40°46' W 073°56'2 4.7
2017-Dec-14 17:01N 40°45' W 073°58'0 0.1
2017-Dec-14 16:31N 40°45' W 073°58'2 4.4
2017-Dec-14 16:00N 40°46' W 073°56'5 5.3
2017-Dec-14 15:01N 40°42' W 074°00'4 8.6
2017-Dec-14 14:30N 40°46' W 073°57'0 0.9
2017-Dec-14 14:00N 40°46' W 073°57'4 8.6
2017-Dec-14 13:30N 40°42' W 073°58'0 0.0
2017-Dec-14 13:00N 40°42' W 073°58'0 0.0
2017-Dec-14 12:30N 40°42' W 073°58'0 0.0
2017-Dec-14 12:00N 40°42' W 073°58'0 0.0
2017-Dec-14 02:29N 40°42' W 073°58'4 8.6
2017-Dec-14 02:01N 40°39' W 074°02'713.8
2017-Dec-14 01:30N 40°34' W 073°55'2 4.9
2017-Dec-14 01:00N 40°34' W 073°58'611.8
2017-Dec-14 00:30N 40°39' W 074°02'0 0.6
2017-Dec-14 00:00N 40°39' W 074°02'713.9
2017-Dec-13 23:30N 40°34' W 073°55'2 4.5
2017-Dec-13 23:00N 40°34' W 073°58'612.0
2017-Dec-13 22:30N 40°39' W 074°02'1 2.7
2017-Dec-13 22:01N 40°40' W 074°01'714.0
2017-Dec-13 21:30N 40°34' W 073°57'2 5.0
2017-Dec-13 21:00N 40°34' W 073°54'715.2
2017-Dec-13 20:30N 40°39' W 074°02'0 0.1
2017-Dec-13 20:01N 40°39' W 074°02'713.2
2017-Dec-13 19:30N 40°34' W 073°56'0 0.6
2017-Dec-13 19:00N 40°34' W 073°56'713.8
2017-Dec-13 18:31N 40°39' W 074°02'0 0.3
2017-Dec-13 18:01N 40°39' W 074°02'713.2
2017-Dec-13 17:30N 40°34' W 073°56'0 0.4
2017-Dec-13 17:00N 40°34' W 073°56'713.8
2017-Dec-13 16:31N 40°39' W 074°02'0 0.8
2017-Dec-13 16:01N 40°39' W 074°02'714.6
2017-Dec-13 15:30N 40°34' W 073°54'0 0.6
2017-Dec-13 15:01N 40°34' W 073°54'715.0
2017-Dec-13 14:31N 40°39' W 074°02'0 0.4
2017-Dec-13 14:01N 40°39' W 074°02'612.4
2017-Dec-13 13:30N 40°34' W 073°57'2 3.4
2017-Dec-13 13:00N 40°34' W 073°54'715.0
2017-Dec-13 12:30N 40°39' W 074°02'0 0.9
2017-Dec-13 12:01N 40°39' W 074°02'713.1
2017-Dec-13 11:30N 40°34' W 073°57'5 9.4
2017-Dec-13 11:00N 40°35' W 073°51'917.6
2017-Dec-13 10:30N 40°36' W 074°02'713.2
2017-Dec-13 10:00N 40°42' W 073°58'0 0.0
2017-Dec-13 03:47N 40°42' W 073°58'415.9
2017-Dec-13 03:30N 40°46' W 073°56'2 4.7
2017-Dec-13 03:00N 40°45' W 073°58'0 0.7
2017-Dec-13 02:31N 40°44' W 073°58'3 5.1
2017-Dec-13 02:00N 40°46' W 073°56'2 3.4
2017-Dec-13 01:30N 40°45' W 073°57'3 6.7
2017-Dec-13 01:01N 40°42' W 074°00'4 7.7
2017-Dec-13 00:31N 40°45' W 073°57'0 0.2
2017-Dec-13 00:00N 40°45' W 073°57'4 7.2
2017-Dec-12 23:30N 40°42' W 073°60'3 5.7
2017-Dec-12 23:00N 40°45' W 073°57'2 3.5
2017-Dec-12 22:30N 40°46' W 073°56'2 4.5
2017-Dec-12 22:00N 40°45' W 073°58'0 0.1
2017-Dec-12 21:30N 40°45' W 073°58'2 4.6
2017-Dec-12 21:00N 40°46' W 073°56'2 3.4
2017-Dec-12 20:30N 40°45' W 073°57'3 6.4
2017-Dec-12 20:00N 40°42' W 073°60'1 2.4
2017-Dec-12 19:30N 40°42' W 073°58'1 1.7
2017-Dec-12 19:01N 40°42' W 073°59'1 1.7
2017-Dec-12 18:30N 40°42' W 073°58'1 2.5
2017-Dec-12 18:00N 40°43' W 073°58'2 3.5
2017-Dec-12 17:30N 40°42' W 073°60'1 1.5
2017-Dec-12 17:00N 40°42' W 074°00'0 0.6
2017-Dec-12 16:31N 40°41' W 074°00'2 3.6
2017-Dec-12 16:01N 40°42' W 073°58'0 0.0
2017-Dec-12 15:30N 40°42' W 073°58'5 9.1
2017-Dec-12 15:00N 40°46' W 073°57'2 4.6
2017-Dec-12 14:30N 40°44' W 073°58'0 0.4
2017-Dec-12 14:00N 40°45' W 073°58'2 4.5
2017-Dec-12 13:30N 40°46' W 073°56'2 3.6
2017-Dec-12 13:00N 40°45' W 073°57'3 6.0
2017-Dec-12 12:30N 40°42' W 073°60'4 7.5
2017-Dec-12 12:00N 40°46' W 073°57'4 7.2
2017-Dec-12 11:30N 40°42' W 073°58'0 0.0
2017-Dec-12 02:32N 40°42' W 073°58'0 0.2
2017-Dec-12 02:30N 40°42' W 073°58'3 6.1
2017-Dec-12 02:01N 40°40' W 074°01'713.4
2017-Dec-12 01:30N 40°34' W 073°58'4 7.7
2017-Dec-12 01:00N 40°35' W 073°53'816.2
2017-Dec-12 00:30N 40°39' W 074°02'1 2.7
2017-Dec-12 00:00N 40°40' W 074°01'713.6
2017-Dec-11 23:30N 40°34' W 073°57'3 5.5
2017-Dec-11 22:58N 40°34' W 073°54'816.2
2017-Dec-11 22:30N 40°39' W 074°02'1 1.9
2017-Dec-11 22:01N 40°40' W 074°01'712.8
2017-Dec-11 21:30N 40°34' W 073°58'4 7.3
2017-Dec-11 21:00N 40°34' W 073°53'816.2
2017-Dec-11 20:31N 40°39' W 074°02'2 3.0
2017-Dec-11 20:01N 40°40' W 074°01'714.0
2017-Dec-11 19:30N 40°34' W 073°57'3 6.5
2017-Dec-11 19:00N 40°34' W 073°53'816.1
2017-Dec-11 18:30N 40°39' W 074°02'2 3.3
2017-Dec-11 18:01N 40°40' W 074°01'814.5
2017-Dec-11 17:29N 40°34' W 073°56'2 4.9
2017-Dec-11 17:00N 40°34' W 073°53'815.8
2017-Dec-11 16:30N 40°39' W 074°02'1 2.6
2017-Dec-11 16:01N 40°40' W 074°01'713.8
2017-Dec-11 15:30N 40°34' W 073°57'4 7.5
2017-Dec-11 15:00N 40°35' W 073°52'816.6
2017-Dec-11 14:30N 40°39' W 074°02'1 2.4
2017-Dec-11 14:01N 40°40' W 074°01'713.6
2017-Dec-11 13:31N 40°34' W 073°57'4 7.4
2017-Dec-11 13:00N 40°35' W 073°53'815.9
2017-Dec-11 12:30N 40°39' W 074°02'1 2.5
2017-Dec-11 12:01N 40°40' W 074°01'713.8
2017-Dec-11 11:30N 40°34' W 073°57'510.5
2017-Dec-11 10:59N 40°35' W 073°50'918.0
2017-Dec-11 10:30N 40°35' W 074°01'714.7
2017-Dec-11 10:01N 40°42' W 073°58'0 0.0
2017-Dec-11 03:41N 40°42' W 073°58'1 8.2
2017-Dec-11 03:31N 40°42' W 074°00'713.3
2017-Dec-11 03:01N 40°36' W 074°02'917.5
2017-Dec-11 02:30N 40°35' W 073°50'918.5
2017-Dec-11 02:00N 40°35' W 074°02'714.4
2017-Dec-11 01:30N 40°42' W 074°00'612.3
2017-Dec-11 01:00N 40°36' W 074°02'916.6
2017-Dec-11 00:26N 40°35' W 073°50'920.7
2017-Dec-11 00:00N 40°35' W 074°02'714.4
2017-Dec-10 23:31N 40°42' W 074°00'712.7
2017-Dec-10 23:00N 40°36' W 074°02'918.2
2017-Dec-10 22:30N 40°35' W 073°50'817.0
2017-Dec-10 22:00N 40°34' W 074°01'815.8
2017-Dec-10 21:30N 40°42' W 074°00'612.2
2017-Dec-10 21:00N 40°36' W 074°02'917.5
2017-Dec-10 20:28N 40°35' W 073°50'918.8
2017-Dec-10 20:00N 40°35' W 074°01'714.7
2017-Dec-10 19:30N 40°42' W 074°00'611.3
2017-Dec-10 19:01N 40°37' W 074°03'1019.4
2017-Dec-10 18:30N 40°35' W 073°50'917.2
2017-Dec-10 18:00N 40°35' W 074°01'714.4
2017-Dec-10 17:30N 40°42' W 074°00'611.7
2017-Dec-10 17:00N 40°37' W 074°02'1019.1
2017-Dec-10 16:30N 40°35' W 073°50'817.0
2017-Dec-10 16:00N 40°34' W 074°01'815.6
2017-Dec-10 15:30N 40°42' W 074°00'611.8
2017-Dec-10 15:01N 40°37' W 074°02'1018.8
2017-Dec-10 14:30N 40°35' W 073°50'816.8
2017-Dec-10 14:00N 40°34' W 074°01'816.1
2017-Dec-10 13:31N 40°42' W 074°00'612.0
2017-Dec-10 13:00N 40°36' W 074°02'1019.0
2017-Dec-10 12:30N 40°35' W 073°50'714.1
2017-Dec-10 12:00N 40°34' W 073°59'816.9
2017-Dec-10 11:31N 40°42' W 073°59'0 0.6
2017-Dec-10 11:01N 40°42' W 073°58'0 0.0
2017-Dec-10 03:49N 40°42' W 073°58'0 0.2
2017-Dec-10 03:31N 40°42' W 073°58'611.3
2017-Dec-10 03:00N 40°37' W 074°03'1019.4
2017-Dec-10 02:30N 40°35' W 073°50'816.3
2017-Dec-10 02:00N 40°34' W 074°00'816.2
2017-Dec-10 01:30N 40°42' W 074°00'510.2
2017-Dec-10 01:00N 40°37' W 074°03'1019.8
2017-Dec-10 00:30N 40°35' W 073°50'815.8
2017-Dec-10 00:01N 40°34' W 074°00'816.3
2017-Dec-09 23:31N 40°42' W 074°00'611.1
2017-Dec-09 23:01N 40°37' W 074°03'1019.3
2017-Dec-09 22:30N 40°35' W 073°50'817.0
2017-Dec-09 22:00N 40°34' W 074°01'816.1
2017-Dec-09 21:30N 40°42' W 074°00'510.1
2017-Dec-09 21:00N 40°37' W 074°03'1019.0
2017-Dec-09 20:29N 40°35' W 073°50'817.3
2017-Dec-09 20:00N 40°34' W 074°01'816.0
2017-Dec-09 19:30N 40°42' W 074°00'611.2
2017-Dec-09 19:00N 40°37' W 074°03'1018.3
2017-Dec-09 18:28N 40°35' W 073°50'917.8
2017-Dec-09 17:59N 40°35' W 074°01'715.5
2017-Dec-09 17:30N 40°42' W 074°00'611.4
2017-Dec-09 17:00N 40°37' W 074°03'1019.4
2017-Dec-09 16:30N 40°35' W 073°50'816.7
2017-Dec-09 16:00N 40°34' W 074°01'816.0
2017-Dec-09 15:30N 40°42' W 074°00'611.0
2017-Dec-09 15:00N 40°37' W 074°03'1019.1
2017-Dec-09 14:30N 40°35' W 073°50'817.1
2017-Dec-09 14:00N 40°34' W 074°01'815.9
2017-Dec-09 13:31N 40°42' W 074°00'611.8
2017-Dec-09 13:00N 40°37' W 074°02'1018.8
2017-Dec-09 12:30N 40°35' W 073°50'1020.1
2017-Dec-09 12:00N 40°37' W 074°03'612.3
2017-Dec-09 11:30N 40°42' W 073°58'0 0.0
2017-Dec-09 03:23N 40°42' W 073°58'1 2.8
2017-Dec-09 03:01N 40°42' W 073°60'816.8
2017-Dec-09 02:30N 40°34' W 073°58'3 6.8
2017-Dec-09 01:59N 40°34' W 073°54'715.4
2017-Dec-09 01:31N 40°39' W 074°02'2 3.3
2017-Dec-09 01:01N 40°40' W 074°01'814.5
2017-Dec-09 00:29N 40°34' W 073°57'2 4.7
2017-Dec-09 00:00N 40°34' W 073°54'815.2
2017-Dec-08 23:31N 40°39' W 074°02'2 3.1
2017-Dec-08 23:01N 40°40' W 074°01'714.4
2017-Dec-08 22:30N 40°34' W 073°57'4 7.0
2017-Dec-08 21:59N 40°35' W 073°52'817.0
2017-Dec-08 21:31N 40°39' W 074°02'1 2.9
2017-Dec-08 21:01N 40°40' W 074°01'714.0
2017-Dec-08 20:30N 40°34' W 073°57'3 6.1
2017-Dec-08 20:00N 40°34' W 073°53'815.8
2017-Dec-08 19:30N 40°39' W 074°02'1 2.6
2017-Dec-08 19:01N 40°40' W 074°01'713.7
2017-Dec-08 18:30N 40°34' W 073°57'3 5.8
2017-Dec-08 18:00N 40°34' W 073°54'815.6
2017-Dec-08 17:30N 40°39' W 074°02'1 2.8
2017-Dec-08 17:01N 40°40' W 074°01'714.2
2017-Dec-08 16:29N 40°34' W 073°56'3 5.4
2017-Dec-08 16:00N 40°34' W 073°53'816.0
2017-Dec-08 15:31N 40°39' W 074°02'0 0.1
2017-Dec-08 15:01N 40°39' W 074°02'612.8
2017-Dec-08 14:30N 40°34' W 073°56'2 4.0
2017-Dec-08 14:00N 40°34' W 073°54'815.5
2017-Dec-08 13:31N 40°39' W 074°02'0 0.0
2017-Dec-08 13:00N 40°39' W 074°02'712.9
2017-Dec-08 12:29N 40°34' W 073°56'2 5.0
2017-Dec-08 12:00N 40°35' W 073°53'816.5
2017-Dec-08 11:31N 40°39' W 074°02'1 2.3
2017-Dec-08 11:01N 40°40' W 074°01'714.0
2017-Dec-08 10:30N 40°34' W 073°56'2 3.5
2017-Dec-08 10:00N 40°34' W 073°54'816.4
2017-Dec-08 09:31N 40°40' W 074°01'3 6.1
2017-Dec-08 09:00N 40°42' W 073°58'0 0.0
2017-Dec-08 03:53N 40°42' W 073°58'410.0
2017-Dec-08 03:30N 40°46' W 073°57'1 2.8
2017-Dec-08 03:00N 40°45' W 073°58'0 0.2
2017-Dec-08 02:30N 40°45' W 073°58'2 4.4
2017-Dec-08 01:58N 40°46' W 073°56'2 3.8
2017-Dec-08 01:31N 40°45' W 073°57'3 6.6
2017-Dec-08 01:00N 40°42' W 074°00'4 7.9
2017-Dec-08 00:30N 40°46' W 073°57'0 0.0
2017-Dec-08 00:00N 40°46' W 073°57'4 7.2
2017-Dec-07 23:31N 40°42' W 073°59'3 5.6
2017-Dec-07 23:00N 40°45' W 073°57'2 3.4
2017-Dec-07 22:30N 40°46' W 073°56'2 4.7
2017-Dec-07 22:00N 40°45' W 073°58'3 5.1
2017-Dec-07 21:30N 40°42' W 073°58'  

Dump ship's entire track history